Time;durP1;ratioP1;P1;durP2;ratioP2;P2;SDS_P1;SDS_P2;PMS_P1;PMS_P2;Temp;Humidity;BMP_temperature;BMP_pressure;BME280_temperature;BME280_humidity;BME280_pressure;Samples;Min_cycle;Max_cycle;Signal;HPM_P1;HPM_P2
2022/10/08 00:04:48;;;;;;;13.83;7.40;;;14.60;99.90;;;;;;10450015;28;20210;-73
2022/10/08 00:09:49;;;;;;;9.50;6.30;;;14.60;99.90;;;;;;10448684;28;20206;-72
2022/10/08 00:14:52;;;;;;;10.47;6.37;;;14.70;99.90;;;;;;10449604;28;20260;-73
2022/10/08 00:19:54;;;;;;;8.13;6.17;;;14.70;99.90;;;;;;10449116;28;20222;-72
2022/10/08 00:24:55;;;;;;;11.47;6.93;;;14.70;99.90;;;;;;10449583;28;20223;-72
2022/10/08 00:29:55;;;;;;;14.60;7.03;;;14.70;99.90;;;;;;10450177;28;20299;-72
2022/10/08 00:34:56;;;;;;;9.90;6.10;;;14.70;99.90;;;;;;10448932;28;20611;-73
2022/10/08 00:39:57;;;;;;;9.47;6.23;;;14.60;99.90;;;;;;10449504;28;20306;-72
2022/10/08 00:44:59;;;;;;;8.93;6.03;;;14.60;99.90;;;;;;10446659;28;20581;-72
2022/10/08 00:50:05;;;;;;;10.90;6.20;;;14.60;99.90;;;;;;10449463;28;20223;-72
2022/10/08 00:55:07;;;;;;;8.90;5.90;;;14.60;99.90;;;;;;10447481;28;20699;-72
2022/10/08 01:00:13;;;;;;;9.40;5.83;;;14.60;99.90;;;;;;10447119;28;20232;-75
2022/10/08 01:05:18;;;;;;;8.97;6.40;;;14.70;99.90;;;;;;10446925;28;20279;-72
2022/10/08 01:10:44;;;;;;;8.83;5.67;;;14.70;99.90;;;;;;10448257;28;20229;-72
2022/10/08 01:16:00;;;;;;;9.03;6.30;;;14.60;99.90;;;;;;10442657;28;20285;-72
2022/10/08 01:21:26;;;;;;;10.10;5.30;;;14.60;99.90;;;;;;10446759;28;20238;-73
2022/10/08 01:26:41;;;;;;;8.03;6.00;;;14.60;99.90;;;;;;10440852;28;20224;-71
2022/10/08 01:32:12;;;;;;;9.57;5.90;;;14.60;99.90;;;;;;10447329;28;20229;-72
2022/10/08 01:37:25;;;;;;;8.23;5.83;;;14.60;99.90;;;;;;10446263;28;20816;-73
2022/10/08 01:42:27;;;;;;;11.00;7.07;;;14.60;99.90;;;;;;10440353;28;20247;-72
2022/10/08 01:47:30;;;;;;;8.80;5.77;;;14.60;99.90;;;;;;10447753;28;20360;-73
2022/10/08 01:52:42;;;;;;;11.53;6.30;;;14.60;99.90;;;;;;10446759;28;20240;-72
2022/10/08 01:57:44;;;;;;;13.03;6.20;;;14.60;99.90;;;;;;10450916;28;20619;-73
2022/10/08 02:02:45;;;;;;;9.73;6.63;;;14.50;99.90;;;;;;10455596;28;20791;-73
2022/10/08 02:07:45;;;;;;;9.57;6.57;;;14.50;99.90;;;;;;10454465;28;20310;-73
2022/10/08 02:12:49;;;;;;;13.70;6.93;;;14.50;99.90;;;;;;10455203;28;20257;-73
2022/10/08 02:18:05;;;;;;;14.07;7.03;;;14.40;99.90;;;;;;10455862;28;20228;-74
2022/10/08 02:23:28;;;;;;;10.57;6.30;;;14.40;99.90;;;;;;10453437;28;20290;-72
2022/10/08 02:28:32;;;;;;;9.60;6.50;;;14.40;99.90;;;;;;10447669;28;20224;-73
2022/10/08 02:33:38;;;;;;;10.10;6.60;;;14.30;99.90;;;;;;10454008;28;20237;-72
2022/10/08 02:38:48;;;;;;;9.83;6.27;;;14.30;99.90;;;;;;10452554;28;20834;-72
2022/10/08 02:43:54;;;;;;;10.90;6.20;;;14.20;99.90;;;;;;10453636;28;20222;-72
2022/10/08 02:49:04;;;;;;;9.93;5.90;;;14.10;99.90;;;;;;10453033;28;20241;-71
2022/10/08 02:54:06;;;;;;;8.70;5.43;;;14.10;99.90;;;;;;10452496;28;20223;-73
2022/10/08 02:59:09;;;;;;;7.07;5.53;;;14.00;99.90;;;;;;10452213;28;20224;-73
2022/10/08 03:04:22;;;;;;;10.73;5.67;;;13.90;99.90;;;;;;10452986;28;20224;-73
2022/10/08 03:09:24;;;;;;;9.17;6.00;;;13.90;99.90;;;;;;10443616;28;20231;-73
2022/10/08 03:14:26;;;;;;;12.13;5.70;;;13.80;99.90;;;;;;10455282;28;20499;-72
2022/10/08 03:19:27;;;;;;;11.10;5.80;;;13.80;99.90;;;;;;10435546;28;20277;-73
2022/10/08 03:24:28;;;;;;;10.50;5.57;;;13.80;99.90;;;;;;10410110;28;20226;-73
2022/10/08 03:29:28;;;;;;;9.50;5.73;;;13.70;99.90;;;;;;10411195;28;20695;-73
2022/10/08 03:34:29;;;;;;;13.33;6.20;;;13.50;99.90;;;;;;10410821;28;20329;-73
2022/10/08 03:39:29;;;;;;;8.80;5.70;;;13.30;99.90;;;;;;10447798;28;20215;-73
2022/10/08 03:44:36;;;;;;;11.07;5.43;;;13.10;99.90;;;;;;10450479;28;20243;-73
2022/10/08 03:49:37;;;;;;;10.77;5.63;;;12.90;99.90;;;;;;10450896;28;20314;-72
2022/10/08 03:54:37;;;;;;;11.07;5.80;;;12.80;99.90;;;;;;10451508;28;20317;-72
2022/10/08 03:59:38;;;;;;;11.67;5.70;;;12.60;99.90;;;;;;10451675;28;20277;-72
2022/10/08 04:04:38;;;;;;;10.30;5.43;;;12.60;99.90;;;;;;10450952;28;20226;-71
2022/10/08 04:09:39;;;;;;;11.53;5.43;;;12.50;99.90;;;;;;10449692;28;20307;-72
2022/10/08 04:14:39;;;;;;;8.93;5.53;;;12.40;99.90;;;;;;10448697;28;20324;-71
2022/10/08 04:19:40;;;;;;;9.87;5.50;;;12.30;99.90;;;;;;10449881;28;20211;-71
2022/10/08 04:24:40;;;;;;;8.03;5.87;;;12.20;99.90;;;;;;10450101;28;20223;-72
2022/10/08 04:29:41;;;;;;;8.73;5.77;;;12.10;99.90;;;;;;10449513;28;20255;-72
2022/10/08 04:34:42;;;;;;;11.50;6.23;;;12.00;99.90;;;;;;10449771;28;20706;-72
2022/10/08 04:39:45;;;;;;;12.53;6.70;;;11.90;99.90;;;;;;10450216;28;20219;-72
2022/10/08 04:44:46;;;;;;;8.70;6.00;;;11.80;99.90;;;;;;10449034;28;20331;-73
2022/10/08 04:49:46;;;;;;;10.03;6.47;;;11.70;99.90;;;;;;10448870;28;20220;-72
2022/10/08 04:54:47;;;;;;;10.67;6.57;;;11.70;99.90;;;;;;10449141;28;20225;-73
2022/10/08 04:59:48;;;;;;;10.43;6.73;;;11.60;99.90;;;;;;10449163;28;20299;-73
2022/10/08 05:04:49;;;;;;;11.07;6.27;;;11.50;99.90;;;;;;10448792;28;20279;-72
2022/10/08 05:09:49;;;;;;;10.90;6.87;;;11.50;99.90;;;;;;10448310;28;20627;-72
2022/10/08 05:14:50;;;;;;;13.80;7.70;;;11.40;99.90;;;;;;10448763;28;20322;-73
2022/10/08 05:19:51;;;;;;;10.73;7.77;;;11.30;99.90;;;;;;10448685;28;20277;-72
2022/10/08 05:24:52;;;;;;;9.53;7.47;;;11.30;99.90;;;;;;10448318;28;20230;-73
2022/10/08 05:29:52;;;;;;;9.93;7.03;;;11.30;99.90;;;;;;10448353;28;20231;-73
2022/10/08 05:34:53;;;;;;;10.97;6.67;;;11.20;99.90;;;;;;10445990;28;20251;-73
2022/10/08 05:39:53;;;;;;;7.83;5.87;;;11.20;99.90;;;;;;10448026;28;20226;-74
2022/10/08 05:44:57;;;;;;;11.43;5.87;;;11.20;99.90;;;;;;10447404;28;20311;-74
2022/10/08 05:49:58;;;;;;;10.80;6.27;;;11.20;99.90;;;;;;10446893;28;20223;-73
2022/10/08 05:54:59;;;;;;;11.47;5.60;;;11.20;99.90;;;;;;10445879;28;20273;-74
2022/10/08 05:59:59;;;;;;;9.37;5.50;;;11.30;99.90;;;;;;10446092;28;20262;-73
2022/10/08 06:05:00;;;;;;;9.90;5.10;;;11.30;99.90;;;;;;10447017;28;20235;-72
2022/10/08 06:10:00;;;;;;;9.93;5.37;;;11.50;99.90;;;;;;10447267;28;20695;-72
2022/10/08 06:15:01;;;;;;;9.90;4.70;;;11.60;99.90;;;;;;10446742;28;20228;-72
2022/10/08 06:20:02;;;;;;;8.13;4.60;;;11.80;99.90;;;;;;10446683;28;20216;-72
2022/10/08 06:25:03;;;;;;;9.83;4.67;;;12.00;99.90;;;;;;10446857;28;20221;-73
2022/10/08 06:30:04;;;;;;;8.77;4.73;;;12.10;99.90;;;;;;10445202;28;20285;-73
2022/10/08 06:35:04;;;;;;;9.43;4.77;;;12.30;99.90;;;;;;10446684;28;20235;-73
2022/10/08 06:40:05;;;;;;;8.60;4.50;;;12.40;99.90;;;;;;10445859;28;20180;-73
2022/10/08 06:45:06;;;;;;;7.57;4.10;;;12.50;99.90;;;;;;10452770;28;20196;-72
2022/10/08 06:50:07;;;;;;;6.60;3.87;;;12.60;99.90;;;;;;10453577;28;20176;-73
2022/10/08 06:55:08;;;;;;;8.30;3.73;;;13.00;99.90;;;;;;10468988;28;20224;-72
2022/10/08 07:00:09;;;;;;;7.20;3.60;;;13.60;99.90;;;;;;10452868;28;20188;-74
2022/10/08 07:05:10;;;;;;;8.43;4.20;;;13.90;99.90;;;;;;10453099;28;20200;-72
2022/10/08 07:10:10;;;;;;;9.90;4.67;;;14.20;99.90;;;;;;10452720;28;20275;-73
2022/10/08 07:15:11;;;;;;;9.83;4.73;;;14.30;99.90;;;;;;10451235;28;20227;-73
2022/10/08 07:20:15;;;;;;;9.20;4.90;;;14.70;99.90;;;;;;10452965;28;20205;-72
2022/10/08 07:25:15;;;;;;;10.90;4.00;;;15.60;99.90;;;;;;10452506;28;20186;-73
2022/10/08 07:30:22;;;;;;;7.10;3.80;;;18.20;99.90;;;;;;10452538;28;20195;-74
2022/10/08 07:35:22;;;;;;;9.87;3.90;;;21.40;99.90;;;;;;10446299;28;20216;-73
2022/10/08 07:40:23;;;;;;;9.73;3.83;;;23.60;99.90;;;;;;10450234;28;20647;-73
2022/10/08 07:45:24;;;;;;;6.37;3.53;;;26.30;91.40;;;;;;10427384;28;20250;-72
2022/10/08 07:50:24;;;;;;;5.13;3.00;;;28.20;73.70;;;;;;10412908;28;20220;-73
2022/10/08 07:55:25;;;;;;;8.33;3.80;;;29.10;63.40;;;;;;10450898;28;20233;-73
2022/10/08 08:00:26;;;;;;;7.30;4.30;;;29.30;58.60;;;;;;10450868;28;20629;-74
2022/10/08 08:05:26;;;;;;;7.17;4.07;;;29.70;56.40;;;;;;10448354;28;20216;-73
2022/10/08 08:10:27;;;;;;;7.87;3.67;;;29.60;54.30;;;;;;10450711;28;20262;-74
2022/10/08 08:15:27;;;;;;;6.07;3.30;;;28.70;55.60;;;;;;10448983;28;20602;-73
2022/10/08 08:20:28;;;;;;;8.37;3.30;;;29.20;55.10;;;;;;10450268;28;20227;-73
2022/10/08 08:25:29;;;;;;;5.57;2.83;;;30.60;52.10;;;;;;10449808;28;20281;-73
2022/10/08 08:30:29;;;;;;;8.63;3.40;;;31.00;50.50;;;;;;10450023;28;20235;-73
2022/10/08 08:35:30;;;;;;;6.33;2.93;;;31.60;47.60;;;;;;10449379;28;20239;-73
2022/10/08 08:40:30;;;;;;;7.37;3.20;;;32.40;46.60;;;;;;10451584;28;20234;-73
2022/10/08 08:45:34;;;;;;;11.10;3.00;;;33.30;44.20;;;;;;10451591;28;20220;-75
2022/10/08 08:50:38;;;;;;;7.27;3.10;;;34.40;42.10;;;;;;10449324;28;20228;-72
2022/10/08 08:55:44;;;;;;;5.83;2.50;;;35.10;39.50;;;;;;10448854;28;20722;-73
2022/10/08 09:00:56;;;;;;;7.57;2.50;;;35.00;40.00;;;;;;10448296;28;20224;-73
2022/10/08 09:06:04;;;;;;;7.03;2.77;;;35.40;38.70;;;;;;10445769;28;20235;-74
2022/10/08 09:11:05;;;;;;;9.60;3.10;;;31.30;42.90;;;;;;10448393;28;20743;-73
2022/10/08 09:16:11;;;;;;;9.77;3.07;;;27.80;48.90;;;;;;10447699;28;20675;-73
2022/10/08 09:21:11;;;;;;;5.37;2.27;;;25.20;54.50;;;;;;10446996;28;20333;-73
2022/10/08 09:26:30;;;;;;;5.37;2.23;;;23.60;58.70;;;;;;10446371;28;20318;-73
2022/10/08 09:31:48;;;;;;;7.53;2.13;;;21.90;64.10;;;;;;10439515;28;20215;-72
2022/10/08 09:37:02;;;;;;;12.20;2.20;;;20.80;69.70;;;;;;10447746;28;20245;-72
2022/10/08 09:42:36;;;;;;;8.47;1.80;;;20.10;73.00;;;;;;10447906;28;20219;-72
2022/10/08 09:47:37;;;;;;;8.77;1.87;;;20.00;74.30;;;;;;10449928;28;20231;-74
2022/10/08 09:52:39;;;;;;;6.67;1.80;;;20.20;74.90;;;;;;10449145;28;20605;-73
2022/10/08 09:57:44;;;;;;;6.90;1.63;;;20.30;74.30;;;;;;10448491;28;20222;-73
2022/10/08 10:02:50;;;;;;;5.87;1.70;;;19.90;76.00;;;;;;10447614;28;20243;-74
2022/10/08 10:07:51;;;;;;;6.33;1.70;;;19.50;78.70;;;;;;10446627;28;20226;-74
2022/10/08 10:13:16;;;;;;;4.83;1.93;;;19.20;81.10;;;;;;10445191;28;20245;-74
2022/10/08 10:18:23;;;;;;;6.10;2.00;;;19.10;82.50;;;;;;10450299;28;20222;-74
2022/10/08 10:23:49;;;;;;;6.20;1.87;;;19.30;83.70;;;;;;10452232;28;20227;-75
2022/10/08 10:28:57;;;;;;;7.30;1.50;;;19.60;82.00;;;;;;10454502;28;20277;-75
2022/10/08 10:34:06;;;;;;;8.17;1.93;;;19.30;82.80;;;;;;10451877;28;20245;-78
2022/10/08 10:39:37;;;;;;;4.70;1.57;;;19.10;84.80;;;;;;10453912;28;20226;-78
2022/10/08 10:45:02;;;;;;;7.17;1.87;;;18.90;86.20;;;;;;10447446;28;20708;-78
2022/10/08 10:50:02;;;;;;;5.27;1.73;;;18.80;86.30;;;;;;10451988;28;20257;-77
2022/10/08 10:55:31;;;;;;;6.40;1.63;;;18.80;88.00;;;;;;10452797;28;20265;-78
2022/10/08 11:01:13;;;;;;;4.23;1.60;;;19.00;88.00;;;;;;10447473;28;20218;-75
2022/10/08 11:06:34;;;;;;;6.93;1.80;;;19.20;87.50;;;;;;10397445;28;20216;-76
2022/10/08 11:11:54;;;;;;;4.80;1.63;;;19.90;87.20;;;;;;10447844;28;20222;-76
2022/10/08 11:16:58;;;;;;;4.83;1.60;;;20.60;83.30;;;;;;10452478;28;20306;-74
2022/10/08 11:22:29;;;;;;;5.87;1.90;;;20.80;82.90;;;;;;10450178;28;20234;-78
2022/10/08 11:27:35;;;;;;;5.77;1.90;;;20.80;82.80;;;;;;10445242;28;20250;-76
2022/10/08 11:32:36;;;;;;;5.37;1.90;;;21.00;82.20;;;;;;10452071;28;20227;-75
2022/10/08 11:37:48;;;;;;;5.27;2.10;;;21.20;79.80;;;;;;10453035;28;20219;-75
2022/10/08 11:42:57;;;;;;;8.40;2.50;;;21.00;81.50;;;;;;10450042;28;20219;-74
2022/10/08 11:48:00;;;;;;;4.97;1.70;;;20.70;83.20;;;;;;10451862;28;20211;-72
2022/10/08 11:53:12;;;;;;;4.17;1.60;;;20.50;83.80;;;;;;10467053;28;20219;-73
2022/10/08 11:58:26;;;;;;;3.73;1.70;;;20.10;83.70;;;;;;10449520;28;20286;-76
2022/10/08 12:03:39;;;;;;;8.03;2.43;;;19.80;85.20;;;;;;10443181;28;20227;-76
2022/10/08 12:09:00;;;;;;;3.93;1.63;;;19.70;87.10;;;;;;10450026;28;20270;-75
2022/10/08 12:14:18;;;;;;;4.43;1.77;;;19.60;88.40;;;;;;10449549;28;20736;-74
2022/10/08 12:19:37;;;;;;;4.87;1.67;;;20.00;89.10;;;;;;10448684;28;20250;-74
2022/10/08 12:24:37;;;;;;;5.33;1.77;;;20.60;86.20;;;;;;10436144;28;20219;-76
2022/10/08 12:30:07;;;;;;;4.50;1.50;;;20.70;85.20;;;;;;10449745;28;20698;-74
2022/10/08 12:35:30;;;;;;;2.97;1.70;;;20.60;86.20;;;;;;10447168;28;20228;-75
2022/10/08 12:40:53;;;;;;;2.40;1.47;;;20.40;87.60;;;;;;10440453;28;20210;-74
2022/10/08 12:46:16;;;;;;;4.73;1.70;;;20.50;87.20;;;;;;10449798;28;20317;-72
2022/10/08 12:51:47;;;;;;;3.57;1.33;;;20.60;84.90;;;;;;10448285;28;20263;-74
2022/10/08 12:56:52;;;;;;;3.97;1.63;;;20.70;83.60;;;;;;10443847;28;20237;-73
2022/10/08 13:01:53;;;;;;;5.97;1.83;;;20.60;84.40;;;;;;10447976;28;20231;-75
2022/10/08 13:06:55;;;;;;;6.37;1.67;;;20.70;82.60;;;;;;10447932;28;20272;-74
2022/10/08 13:11:58;;;;;;;6.67;1.97;;;20.60;83.20;;;;;;10446091;28;20224;-73
2022/10/08 13:16:59;;;;;;;3.77;1.90;;;20.20;85.30;;;;;;10447977;28;20218;-74
2022/10/08 13:22:06;;;;;;;4.67;1.60;;;19.70;86.60;;;;;;10446752;28;20222;-74
2022/10/08 13:27:28;;;;;;;4.70;1.83;;;19.40;88.40;;;;;;10446898;28;20218;-73
2022/10/08 13:32:34;;;;;;;5.23;2.20;;;19.40;89.60;;;;;;10438561;28;20262;-73
2022/10/08 13:37:37;;;;;;;5.03;2.03;;;19.40;88.90;;;;;;10446874;28;20219;-74
2022/10/08 13:42:42;;;;;;;4.07;2.00;;;19.10;90.00;;;;;;10447413;28;20322;-72
2022/10/08 13:47:42;;;;;;;3.83;1.60;;;18.90;90.20;;;;;;10447712;28;20226;-72
2022/10/08 13:52:55;;;;;;;8.17;2.47;;;18.80;90.90;;;;;;10448484;28;20257;-76
2022/10/08 13:58:00;;;;;;;5.37;2.00;;;18.80;91.30;;;;;;10455321;28;20877;-75
2022/10/08 14:03:01;;;;;;;7.53;2.17;;;18.70;91.30;;;;;;10454265;28;20596;-76
2022/10/08 14:08:24;;;;;;;4.57;2.00;;;18.90;91.00;;;;;;10453915;28;20219;-76
2022/10/08 14:13:25;;;;;;;5.67;1.97;;;18.90;90.70;;;;;;10446922;28;20324;-77
2022/10/08 14:18:26;;;;;;;6.60;2.03;;;18.80;91.30;;;;;;10454399;28;20325;-76
2022/10/08 14:23:26;;;;;;;6.73;1.77;;;18.60;90.40;;;;;;10452645;28;20219;-75
2022/10/08 14:28:27;;;;;;;4.03;1.60;;;18.40;89.20;;;;;;10452219;28;20222;-77
2022/10/08 14:33:28;;;;;;;3.83;1.60;;;18.30;89.10;;;;;;10434879;28;20219;-76
2022/10/08 14:38:31;;;;;;;4.97;1.90;;;18.40;89.80;;;;;;10452454;28;20219;-76
2022/10/08 14:43:32;;;;;;;5.83;1.67;;;18.50;88.70;;;;;;10452295;28;20299;-75
2022/10/08 14:48:32;;;;;;;5.03;1.70;;;18.60;86.90;;;;;;10460489;28;20765;-75
2022/10/08 14:53:33;;;;;;;6.07;1.67;;;18.60;87.60;;;;;;10422938;28;20319;-77
2022/10/08 14:58:34;;;;;;;4.27;1.63;;;18.40;87.90;;;;;;10431712;28;20647;-75
2022/10/08 15:03:34;;;;;;;5.73;1.67;;;18.40;88.00;;;;;;10428541;28;20306;-74
2022/10/08 15:08:35;;;;;;;4.90;1.77;;;18.40;86.30;;;;;;10419101;28;20216;-77
2022/10/08 15:13:35;;;;;;;4.63;1.77;;;18.40;87.00;;;;;;10439567;28;20223;-77
2022/10/08 15:18:36;;;;;;;4.90;1.70;;;18.40;85.70;;;;;;10451364;28;20215;-72
2022/10/08 15:23:37;;;;;;;4.33;1.67;;;18.20;86.40;;;;;;10452562;28;20235;-75
2022/10/08 15:28:37;;;;;;;4.33;1.70;;;18.10;86.90;;;;;;10451790;28;20273;-76
2022/10/08 15:33:40;;;;;;;7.10;1.97;;;18.10;88.10;;;;;;10450598;28;20313;-75
2022/10/08 15:38:41;;;;;;;4.37;1.80;;;18.00;89.10;;;;;;10452278;28;20590;-76
2022/10/08 15:43:42;;;;;;;5.70;2.00;;;17.80;90.00;;;;;;10452157;28;20222;-75
2022/10/08 15:48:53;;;;;;;4.57;1.63;;;17.60;90.30;;;;;;10452305;28;20223;-75
2022/10/08 15:53:54;;;;;;;4.80;1.73;;;17.40;90.50;;;;;;10450183;28;20225;-75
2022/10/08 15:58:57;;;;;;;5.73;1.57;;;17.20;91.30;;;;;;10452393;28;20253;-77
2022/10/08 16:03:58;;;;;;;2.93;1.60;;;16.90;91.90;;;;;;10450556;28;20236;-75
2022/10/08 16:09:01;;;;;;;4.43;1.60;;;16.70;92.80;;;;;;10450930;28;20269;-74
2022/10/08 16:14:05;;;;;;;4.00;1.57;;;16.40;93.50;;;;;;10449277;28;20220;-74
2022/10/08 16:19:09;;;;;;;4.43;1.77;;;16.10;94.40;;;;;;10448790;28;20213;-73
2022/10/08 16:24:10;;;;;;;8.60;2.87;;;15.90;93.90;;;;;;10450847;28;20722;-74
2022/10/08 16:29:13;;;;;;;3.20;1.50;;;15.80;93.30;;;;;;10449942;28;20874;-73
2022/10/08 16:34:20;;;;;;;6.40;2.13;;;15.60;94.40;;;;;;10449550;28;20213;-72
2022/10/08 16:39:23;;;;;;;5.70;3.00;;;15.30;95.60;;;;;;10448613;28;20221;-73
2022/10/08 16:44:23;;;;;;;6.07;2.73;;;15.10;96.90;;;;;;10441786;28;20211;-73
2022/10/08 16:49:26;;;;;;;7.17;3.13;;;14.80;98.50;;;;;;10448760;28;20251;-73
2022/10/08 16:54:27;;;;;;;7.77;3.37;;;14.60;99.80;;;;;;10448306;28;20251;-75
2022/10/08 16:59:29;;;;;;;7.17;2.87;;;14.40;99.90;;;;;;10442390;28;20261;-75
2022/10/08 17:04:37;;;;;;;5.07;2.67;;;14.30;99.90;;;;;;10448822;28;20223;-75
2022/10/08 17:09:38;;;;;;;4.53;2.40;;;14.20;99.90;;;;;;10447464;28;20228;-72
2022/10/08 17:14:38;;;;;;;5.73;2.40;;;14.20;99.90;;;;;;10447023;28;20229;-72
2022/10/08 17:19:39;;;;;;;2.93;2.00;;;14.10;99.90;;;;;;10446948;28;20230;-73
2022/10/08 17:24:40;;;;;;;4.33;2.43;;;14.10;99.90;;;;;;10444354;28;20227;-72
2022/10/08 17:29:40;;;;;;;6.10;2.77;;;14.10;99.90;;;;;;10442987;28;20311;-72
2022/10/08 17:34:41;;;;;;;7.43;3.20;;;14.10;99.90;;;;;;10445601;28;20230;-73
2022/10/08 17:39:41;;;;;;;6.30;3.10;;;14.10;99.90;;;;;;10447959;28;20213;-72
2022/10/08 17:44:42;;;;;;;11.10;6.47;;;14.20;99.90;;;;;;10447150;28;20314;-73
2022/10/08 17:49:42;;;;;;;14.03;8.50;;;14.20;99.90;;;;;;10446822;28;20692;-72
2022/10/08 17:54:43;;;;;;;10.27;6.23;;;14.10;99.90;;;;;;10446007;28;20228;-73
2022/10/08 17:59:44;;;;;;;10.37;6.37;;;14.00;99.90;;;;;;10446909;28;20225;-72
2022/10/08 18:04:47;;;;;;;10.83;7.07;;;13.80;99.90;;;;;;10445273;28;20249;-73
2022/10/08 18:09:48;;;;;;;14.50;7.67;;;13.70;99.90;;;;;;10446105;28;20251;-72
2022/10/08 18:14:49;;;;;;;11.97;6.30;;;13.60;99.90;;;;;;10446115;28;20220;-73
2022/10/08 18:19:50;;;;;;;8.37;4.67;;;13.60;99.90;;;;;;10444903;28;20846;-73
2022/10/08 18:24:50;;;;;;;9.53;4.53;;;13.50;99.90;;;;;;10446061;28;20701;-72
2022/10/08 18:29:51;;;;;;;8.90;4.20;;;13.50;99.90;;;;;;10446137;28;20715;-72
2022/10/08 18:34:51;;;;;;;6.90;3.60;;;13.50;99.90;;;;;;10445678;28;20227;-72
2022/10/08 18:39:52;;;;;;;8.57;3.53;;;13.40;99.90;;;;;;10449588;28;20215;-73
2022/10/08 18:44:53;;;;;;;7.27;3.70;;;13.40;99.90;;;;;;10453372;28;20220;-72
2022/10/08 18:49:53;;;;;;;11.03;5.10;;;13.40;99.90;;;;;;10452844;28;20278;-72
2022/10/08 18:54:57;;;;;;;10.27;5.60;;;13.30;99.90;;;;;;10453882;28;20617;-72
2022/10/08 18:59:58;;;;;;;9.03;4.97;;;13.30;99.90;;;;;;10453494;28;20323;-71
2022/10/08 19:04:59;;;;;;;6.83;4.47;;;13.10;99.90;;;;;;10453063;28;20299;-72
2022/10/08 19:10:00;;;;;;;6.83;4.50;;;13.00;99.90;;;;;;10452149;28;20219;-72
2022/10/08 19:15:00;;;;;;;11.83;4.80;;;12.80;99.90;;;;;;10452617;28;20227;-72
2022/10/08 19:20:01;;;;;;;7.73;4.17;;;12.60;99.90;;;;;;10452647;28;20278;-71
2022/10/08 19:25:02;;;;;;;9.57;4.50;;;12.50;99.90;;;;;;10451498;28;20546;-71
2022/10/08 19:30:03;;;;;;;10.90;4.50;;;12.30;99.90;;;;;;10451914;28;20247;-72
2022/10/08 19:35:04;;;;;;;9.03;4.53;;;12.10;99.90;;;;;;10451291;28;20703;-72
2022/10/08 19:40:05;;;;;;;9.27;5.90;;;12.00;99.90;;;;;;10451521;28;20627;-72
2022/10/08 19:45:06;;;;;;;12.17;5.30;;;11.90;99.90;;;;;;10451075;28;20183;-71
2022/10/08 19:50:07;;;;;;;10.03;5.13;;;11.70;99.90;;;;;;10450189;28;20192;-71
2022/10/08 19:55:08;;;;;;;10.37;5.37;;;11.70;99.90;;;;;;10451309;28;20215;-72
2022/10/08 20:00:09;;;;;;;8.23;4.93;;;11.60;99.90;;;;;;10451113;28;20242;-72
2022/10/08 20:05:10;;;;;;;9.60;5.63;;;11.50;99.90;;;;;;10449465;28;20188;-72
2022/10/08 20:10:14;;;;;;;11.13;6.53;;;11.50;99.90;;;;;;10448520;28;20180;-72
2022/10/08 20:15:15;;;;;;;11.70;8.20;;;11.50;99.90;;;;;;10450142;28;20294;-72
2022/10/08 20:20:15;;;;;;;12.60;6.60;;;11.40;99.90;;;;;;10448111;28;20198;-71
2022/10/08 20:25:19;;;;;;;11.43;8.07;;;11.30;99.90;;;;;;10448871;28;20184;-73
2022/10/08 20:30:19;;;;;;;9.23;6.10;;;11.20;99.90;;;;;;10449280;28;20188;-73
2022/10/08 20:35:20;;;;;;;11.00;6.23;;;11.10;99.90;;;;;;10448350;28;20216;-73
2022/10/08 20:40:20;;;;;;;10.93;6.70;;;11.00;99.90;;;;;;10449401;28;20515;-73
2022/10/08 20:45:21;;;;;;;10.57;6.47;;;10.90;99.90;;;;;;10446595;28;20191;-73
2022/10/08 20:50:21;;;;;;;11.83;6.57;;;10.80;99.90;;;;;;10447761;28;20191;-73
2022/10/08 20:55:22;;;;;;;10.87;5.90;;;10.80;99.90;;;;;;10447786;28;20651;-72
2022/10/08 21:00:23;;;;;;;11.00;6.03;;;10.70;99.90;;;;;;10446703;28;20254;-74
2022/10/08 21:05:23;;;;;;;10.13;6.10;;;10.70;99.90;;;;;;10447153;28;20223;-73
2022/10/08 21:10:24;;;;;;;9.53;5.80;;;10.60;99.90;;;;;;10446494;28;20247;-73
2022/10/08 21:15:24;;;;;;;8.53;6.03;;;10.50;99.90;;;;;;10446731;28;20223;-74
2022/10/08 21:20:25;;;;;;;8.13;5.63;;;10.50;99.90;;;;;;10447093;28;20216;-73
2022/10/08 21:25:26;;;;;;;12.27;6.17;;;10.40;99.90;;;;;;10446122;28;20629;-73
2022/10/08 21:30:26;;;;;;;10.53;6.30;;;10.30;99.90;;;;;;10447264;28;20207;-72
2022/10/08 21:35:27;;;;;;;8.73;6.20;;;10.30;99.90;;;;;;10444993;28;20223;-72
2022/10/08 21:40:27;;;;;;;10.90;6.40;;;10.20;99.90;;;;;;10449382;28;20222;-72
2022/10/08 21:45:28;;;;;;;8.27;4.70;;;10.10;99.90;;;;;;10446038;28;20224;-73
2022/10/08 21:50:28;;;;;;;8.83;5.13;;;10.10;99.90;;;;;;10412943;28;20208;-73
2022/10/08 21:55:29;;;;;;;6.83;4.27;;;10.10;99.90;;;;;;10416256;28;20227;-74
2022/10/08 22:00:36;;;;;;;7.03;4.77;;;10.20;99.90;;;;;;10405699;28;20719;-72
2022/10/08 22:05:48;;;;;;;10.13;5.27;;;10.20;99.90;;;;;;10420163;28;20224;-72
2022/10/08 22:10:49;;;;;;;7.63;4.97;;;10.20;99.90;;;;;;10404594;28;20220;-73
2022/10/08 22:15:54;;;;;;;7.90;4.73;;;10.10;99.90;;;;;;10411084;28;20224;-73
2022/10/08 22:20:54;;;;;;;10.33;5.10;;;10.00;99.90;;;;;;10412159;28;20220;-72
2022/10/08 22:25:58;;;;;;;6.70;4.33;;;9.90;99.90;;;;;;10419738;28;20233;-72
2022/10/08 22:31:00;;;;;;;6.33;4.40;;;9.80;99.90;;;;;;10454310;28;20748;-73
2022/10/08 22:36:09;;;;;;;11.50;4.97;;;9.70;99.90;;;;;;10451673;28;20874;-73
2022/10/08 22:41:12;;;;;;;6.67;4.57;;;9.70;99.90;;;;;;10453579;28;20220;-72
2022/10/08 22:46:21;;;;;;;11.57;5.10;;;9.60;99.90;;;;;;10449168;28;20215;-72
2022/10/08 22:51:22;;;;;;;7.67;5.07;;;9.60;99.90;;;;;;10452524;28;20306;-73
2022/10/08 22:56:27;;;;;;;9.23;5.43;;;9.50;99.90;;;;;;10453043;28;20241;-73
2022/10/08 23:01:28;;;;;;;9.87;5.47;;;9.50;99.90;;;;;;10447650;28;20223;-72
2022/10/08 23:06:32;;;;;;;8.77;5.10;;;9.40;99.90;;;;;;10453583;28;20227;-73
2022/10/08 23:11:33;;;;;;;7.57;4.97;;;9.30;99.90;;;;;;10452649;28;20231;-73
2022/10/08 23:16:34;;;;;;;8.10;5.00;;;9.30;99.90;;;;;;10453067;28;20228;-73
2022/10/08 23:21:35;;;;;;;9.07;5.27;;;9.20;99.90;;;;;;10453141;28;20632;-72
2022/10/08 23:26:36;;;;;;;8.80;5.40;;;9.20;99.90;;;;;;10451582;28;20223;-73
2022/10/08 23:31:37;;;;;;;8.90;5.10;;;9.10;99.90;;;;;;10452749;28;20218;-72
2022/10/08 23:36:42;;;;;;;7.63;4.97;;;9.10;99.90;;;;;;10451472;28;20230;-73
2022/10/08 23:41:43;;;;;;;6.63;4.87;;;9.00;99.90;;;;;;10450980;28;21001;-73
2022/10/08 23:46:47;;;;;;;12.30;5.07;;;9.00;99.90;;;;;;10450886;28;20429;-77
2022/10/08 23:51:47;;;;;;;8.50;4.80;;;8.90;99.90;;;;;;10451446;28;20231;-79
2022/10/08 23:56:48;;;;;;;7.63;4.83;;;8.90;99.90;;;;;;10451748;28;20724;-78
